Time;durP1;ratioP1;P1;durP2;ratioP2;P2;SDS_P1;SDS_P2;PMS_P1;PMS_P2;Temp;Humidity;BMP_temperature;BMP_pressure;BME280_temperature;BME280_humidity;BME280_pressure;Samples;Min_cycle;Max_cycle;Signal;HPM_P1;HPM_P2
2023/11/26 00:00:58;;;;;;;21.83;4.10;;;;;;;;;;5014633;28;20585;-79
2023/11/26 00:03:24;;;;;;;18.20;3.13;;;;;;;;;;5018395;28;20116;-79
2023/11/26 00:05:50;;;;;;;14.57;4.50;;;;;;;;;;5019060;28;20040;-79
2023/11/26 00:08:17;;;;;;;21.73;4.93;;;;;;;;;;5018887;28;20033;-80
2023/11/26 00:10:43;;;;;;;15.00;4.60;;;;;;;;;;5018656;28;20029;-80
2023/11/26 00:13:09;;;;;;;17.53;4.13;;;;;;;;;;5004389;28;20037;-80
2023/11/26 00:15:35;;;;;;;29.47;5.17;;;;;;;;;;5035411;28;20033;-79
2023/11/26 00:18:03;;;;;;;17.57;5.03;;;;;;;;;;5017308;28;20018;-78
2023/11/26 00:20:29;;;;;;;19.70;6.07;;;;;;;;;;5008443;28;20104;-79
2023/11/26 00:22:56;;;;;;;20.17;4.70;;;;;;;;;;5027809;28;20045;-79
2023/11/26 00:25:22;;;;;;;20.17;5.07;;;;;;;;;;5015283;28;20099;-79
2023/11/26 00:27:48;;;;;;;15.97;4.80;;;;;;;;;;5010919;28;20037;-81
2023/11/26 00:30:14;;;;;;;16.07;5.17;;;;;;;;;;5015118;28;20072;-79
2023/11/26 00:32:40;;;;;;;19.17;5.13;;;;;;;;;;5015352;28;20025;-79
2023/11/26 00:35:06;;;;;;;24.63;5.17;;;;;;;;;;5015075;28;20037;-79
2023/11/26 00:37:32;;;;;;;15.07;5.00;;;;;;;;;;5015317;28;20030;-79
2023/11/26 00:39:59;;;;;;;20.07;5.53;;;;;;;;;;5009764;28;20026;-80
2023/11/26 00:42:25;;;;;;;21.63;6.90;;;;;;;;;;5009130;28;20052;-79
2023/11/26 00:44:51;;;;;;;21.17;5.43;;;;;;;;;;5032460;28;20029;-80
2023/11/26 00:47:17;;;;;;;14.70;5.30;;;;;;;;;;5015220;28;20048;-79
2023/11/26 00:49:43;;;;;;;24.40;6.73;;;;;;;;;;5030610;28;20719;-79
2023/11/26 00:52:09;;;;;;;11.73;5.27;;;;;;;;;;5015625;28;20041;-79
2023/11/26 00:54:35;;;;;;;17.13;5.20;;;;;;;;;;5020526;28;20037;-80
2023/11/26 00:57:01;;;;;;;18.57;5.73;;;;;;;;;;5019717;28;20108;-79
2023/11/26 00:59:27;;;;;;;23.73;5.70;;;;;;;;;;5036742;28;20441;-79
2023/11/26 01:01:53;;;;;;;20.80;6.90;;;;;;;;;;5019608;28;20033;-79
2023/11/26 01:04:19;;;;;;;29.23;8.30;;;;;;;;;;5021822;28;20044;-79
2023/11/26 01:06:45;;;;;;;19.53;5.43;;;;;;;;;;5016464;28;20059;-80
2023/11/26 01:09:12;;;;;;;18.07;5.70;;;;;;;;;;5036737;28;20037;-80
2023/11/26 01:11:38;;;;;;;16.40;5.60;;;;;;;;;;5036648;28;20529;-79
2023/11/26 01:14:06;;;;;;;25.83;6.40;;;;;;;;;;5016568;28;20033;-81
2023/11/26 01:16:37;;;;;;;23.90;6.67;;;;;;;;;;5020660;28;21794;-79
2023/11/26 01:19:03;;;;;;;24.67;6.77;;;;;;;;;;5015291;28;20446;-79
2023/11/26 01:21:29;;;;;;;18.63;5.33;;;;;;;;;;5018801;28;20044;-79
2023/11/26 01:23:55;;;;;;;20.80;7.53;;;;;;;;;;5019626;28;20060;-79
2023/11/26 01:26:21;;;;;;;21.30;5.87;;;;;;;;;;5034219;28;20041;-79
2023/11/26 01:28:47;;;;;;;12.13;6.30;;;;;;;;;;5017366;28;20025;-81
2023/11/26 01:31:14;;;;;;;23.33;7.20;;;;;;;;;;5035542;28;20033;-79
2023/11/26 01:33:40;;;;;;;13.90;6.00;;;;;;;;;;5017269;28;20041;-79
2023/11/26 01:36:09;;;;;;;20.07;6.60;;;;;;;;;;5018351;28;20504;-79
2023/11/26 01:38:35;;;;;;;19.70;5.97;;;;;;;;;;5018320;28;20397;-79
2023/11/26 01:41:04;;;;;;;19.80;6.33;;;;;;;;;;5016848;28;20029;-79
2023/11/26 01:43:42;;;;;;;28.30;7.23;;;;;;;;;;5017343;28;20080;-80
2023/11/26 01:46:12;;;;;;;23.63;6.50;;;;;;;;;;5018530;28;20037;-79
2023/11/26 01:48:38;;;;;;;18.03;5.97;;;;;;;;;;5035903;28;20033;-79
2023/11/26 01:51:08;;;;;;;19.20;6.13;;;;;;;;;;5017932;28;20029;-77
2023/11/26 01:53:35;;;;;;;18.40;4.80;;;;;;;;;;5016658;28;20037;-79
2023/11/26 01:56:01;;;;;;;19.40;6.73;;;;;;;;;;5017432;28;20064;-78
2023/11/26 01:58:29;;;;;;;15.73;4.87;;;;;;;;;;5017490;28;20021;-79
2023/11/26 02:00:55;;;;;;;15.50;5.47;;;;;;;;;;5032335;28;20039;-78
2023/11/26 02:03:22;;;;;;;16.37;5.27;;;;;;;;;;5015672;28;20053;-79
2023/11/26 02:05:48;;;;;;;22.80;4.60;;;;;;;;;;5014570;28;20029;-79
2023/11/26 02:08:15;;;;;;;15.37;4.93;;;;;;;;;;5016430;28;20037;-78
2023/11/26 02:10:41;;;;;;;19.77;5.70;;;;;;;;;;5016377;28;20103;-79
2023/11/26 02:13:10;;;;;;;27.17;6.03;;;;;;;;;;5016703;28;20036;-78
2023/11/26 02:15:36;;;;;;;14.97;5.10;;;;;;;;;;5014360;28;20485;-78
2023/11/26 02:18:02;;;;;;;23.80;6.47;;;;;;;;;;5017457;28;20030;-79
2023/11/26 02:20:29;;;;;;;17.67;5.17;;;;;;;;;;5017050;28;20041;-79
2023/11/26 02:22:55;;;;;;;17.23;5.57;;;;;;;;;;5016284;28;20442;-78
2023/11/26 02:25:23;;;;;;;16.87;4.33;;;;;;;;;;5015962;28;20616;-77
2023/11/26 02:27:49;;;;;;;14.73;5.33;;;;;;;;;;5015816;28;20021;-78
2023/11/26 02:30:20;;;;;;;13.97;4.60;;;;;;;;;;5014381;28;20610;-77
2023/11/26 02:32:49;;;;;;;12.23;5.13;;;;;;;;;;5013594;28;20084;-81
2023/11/26 02:35:15;;;;;;;14.00;5.93;;;;;;;;;;5014247;28;20346;-79
2023/11/26 02:37:41;;;;;;;14.07;5.07;;;;;;;;;;5015376;28;20033;-79
2023/11/26 02:40:08;;;;;;;17.37;5.00;;;;;;;;;;5014504;28;20018;-79
2023/11/26 02:42:34;;;;;;;22.00;5.53;;;;;;;;;;5015107;28;20029;-80
2023/11/26 02:45:00;;;;;;;18.90;5.43;;;;;;;;;;5015954;28;20132;-78
2023/11/26 02:47:26;;;;;;;15.53;5.60;;;;;;;;;;5032274;28;20171;-79
2023/11/26 02:49:53;;;;;;;22.43;5.10;;;;;;;;;;5030454;28;20025;-79
2023/11/26 02:52:19;;;;;;;22.97;6.00;;;;;;;;;;5015962;28;20037;-79
2023/11/26 02:54:45;;;;;;;24.73;6.03;;;;;;;;;;5033389;28;20107;-79
2023/11/26 02:57:11;;;;;;;18.97;5.37;;;;;;;;;;5016023;28;20030;-78
2023/11/26 02:59:37;;;;;;;14.97;5.40;;;;;;;;;;5035178;28;20037;-79
2023/11/26 03:02:03;;;;;;;12.07;5.73;;;;;;;;;;5016261;28;20032;-81
2023/11/26 03:04:29;;;;;;;21.10;7.10;;;;;;;;;;5014940;28;20083;-79
2023/11/26 03:06:58;;;;;;;18.73;6.40;;;;;;;;;;5012838;28;20511;-78
2023/11/26 03:14:45;;;;;;;22.93;7.17;;;;;;;;;;5032170;28;20989;-79
2023/11/26 03:17:11;;;;;;;23.60;7.17;;;;;;;;;;5029017;28;20038;-79
2023/11/26 03:19:37;;;;;;;18.00;6.83;;;;;;;;;;5016089;28;21507;-79
2023/11/26 03:22:07;;;;;;;18.67;6.97;;;;;;;;;;5017268;28;20450;-78
2023/11/26 03:24:33;;;;;;;22.50;8.20;;;;;;;;;;5031961;28;20029;-79
2023/11/26 03:26:59;;;;;;;22.10;8.53;;;;;;;;;;5014878;28;20370;-79
2023/11/26 03:29:25;;;;;;;22.03;8.17;;;;;;;;;;5032925;28;20461;-79
2023/11/26 03:31:53;;;;;;;27.93;9.07;;;;;;;;;;5009378;28;20088;-79
2023/11/26 03:34:19;;;;;;;21.13;7.70;;;;;;;;;;5014940;28;20112;-79
2023/11/26 03:36:45;;;;;;;22.50;8.30;;;;;;;;;;5011844;28;20087;-79
2023/11/26 03:39:12;;;;;;;17.73;9.70;;;;;;;;;;5011446;28;20048;-79
2023/11/26 03:41:38;;;;;;;24.73;10.23;;;;;;;;;;5014854;28;20026;-80
2023/11/26 03:44:04;;;;;;;23.87;9.47;;;;;;;;;;5032728;28;20049;-79
2023/11/26 03:46:33;;;;;;;20.70;9.50;;;;;;;;;;5016470;28;20037;-80
2023/11/26 03:48:59;;;;;;;29.53;10.87;;;;;;;;;;5014472;28;20071;-79
2023/11/26 03:51:28;;;;;;;25.60;10.20;;;;;;;;;;5032907;28;20063;-79
2023/11/26 03:53:57;;;;;;;27.43;10.60;;;;;;;;;;5014083;28;20033;-79
2023/11/26 03:56:23;;;;;;;32.90;11.67;;;;;;;;;;5028547;28;20033;-78
2023/11/26 03:58:50;;;;;;;26.53;11.90;;;;;;;;;;5030988;28;20037;-79
2023/11/26 04:01:18;;;;;;;31.27;12.60;;;;;;;;;;5015357;28;20540;-79
2023/11/26 04:03:44;;;;;;;34.63;12.77;;;;;;;;;;5014400;28;20037;-79
2023/11/26 04:06:10;;;;;;;27.57;12.73;;;;;;;;;;5031892;28;20037;-81
2023/11/26 04:08:36;;;;;;;24.17;11.23;;;;;;;;;;5014869;28;20033;-79
2023/11/26 04:11:02;;;;;;;23.77;9.50;;;;;;;;;;5028251;28;20048;-81
2023/11/26 04:13:28;;;;;;;24.40;9.13;;;;;;;;;;5032267;28;20622;-81
2023/11/26 04:15:57;;;;;;;21.43;8.53;;;;;;;;;;5029941;28;20035;-79
2023/11/26 04:18:27;;;;;;;24.20;8.47;;;;;;;;;;5013505;28;20025;-81
2023/11/26 04:20:53;;;;;;;24.17;8.83;;;;;;;;;;5014692;28;20021;-79
2023/11/26 04:23:19;;;;;;;22.57;8.70;;;;;;;;;;5015525;28;20373;-79
2023/11/26 04:25:45;;;;;;;19.60;8.50;;;;;;;;;;5015711;28;20044;-79
2023/11/26 04:28:12;;;;;;;21.47;8.37;;;;;;;;;;5031559;28;20044;-78
2023/11/26 04:30:38;;;;;;;16.97;8.17;;;;;;;;;;5014780;28;20037;-80
2023/11/26 04:33:04;;;;;;;18.27;7.93;;;;;;;;;;5014377;28;20041;-78
2023/11/26 04:35:30;;;;;;;20.70;8.23;;;;;;;;;;5032836;28;20049;-81
2023/11/26 04:37:56;;;;;;;16.40;7.70;;;;;;;;;;5014453;28;20025;-79
2023/11/26 04:40:22;;;;;;;17.80;7.40;;;;;;;;;;5030717;28;20048;-80
2023/11/26 04:42:48;;;;;;;17.83;8.17;;;;;;;;;;5010770;28;20053;-81
2023/11/26 04:45:14;;;;;;;21.17;8.47;;;;;;;;;;5034385;28;20056;-81
2023/11/26 04:47:43;;;;;;;17.53;8.70;;;;;;;;;;5013584;28;20118;-80
2023/11/26 04:50:12;;;;;;;21.80;8.67;;;;;;;;;;5006087;28;20026;-80
2023/11/26 04:52:38;;;;;;;18.87;9.40;;;;;;;;;;5007594;28;20026;-79
2023/11/26 04:55:05;;;;;;;20.77;8.70;;;;;;;;;;5017692;28;20043;-81
2023/11/26 04:57:31;;;;;;;22.63;9.40;;;;;;;;;;5010349;28;20025;-81
2023/11/26 04:59:57;;;;;;;20.03;10.23;;;;;;;;;;5017156;28;20361;-81
2023/11/26 05:02:23;;;;;;;26.37;10.93;;;;;;;;;;5014469;28;20056;-81
2023/11/26 05:04:49;;;;;;;27.17;11.63;;;;;;;;;;5017408;28;20038;-80
2023/11/26 05:07:15;;;;;;;25.27;11.10;;;;;;;;;;5017776;28;20039;-79
2023/11/26 05:09:41;;;;;;;35.83;15.50;;;;;;;;;;5017857;28;20037;-79
2023/11/26 05:12:07;;;;;;;34.60;15.30;;;;;;;;;;5034752;28;20048;-79
2023/11/26 05:14:33;;;;;;;31.23;14.90;;;;;;;;;;5018458;28;20094;-79
2023/11/26 05:16:59;;;;;;;31.33;16.53;;;;;;;;;;5012296;28;20108;-81
2023/11/26 05:19:25;;;;;;;32.77;15.90;;;;;;;;;;5015073;28;20052;-79
2023/11/26 05:21:52;;;;;;;30.53;15.43;;;;;;;;;;5035322;28;20430;-79
2023/11/26 05:24:18;;;;;;;34.70;16.47;;;;;;;;;;5016659;28;20033;-79
2023/11/26 05:26:44;;;;;;;30.90;15.63;;;;;;;;;;5011917;28;20022;-80
2023/11/26 05:29:10;;;;;;;37.93;16.77;;;;;;;;;;5015628;28;20037;-81
2023/11/26 05:31:36;;;;;;;45.57;14.90;;;;;;;;;;5014809;28;20025;-79
2023/11/26 05:34:02;;;;;;;33.80;14.30;;;;;;;;;;5013748;28;20350;-81
2023/11/26 05:36:30;;;;;;;30.57;12.80;;;;;;;;;;5016983;28;20017;-79
2023/11/26 05:38:56;;;;;;;27.10;13.50;;;;;;;;;;5030252;28;20045;-79
2023/11/26 05:41:25;;;;;;;31.43;12.07;;;;;;;;;;5021170;28;20335;-79
2023/11/26 05:43:52;;;;;;;28.70;12.03;;;;;;;;;;5023821;28;20041;-79
2023/11/26 05:46:18;;;;;;;24.80;11.60;;;;;;;;;;5012115;28;20025;-79
2023/11/26 05:48:44;;;;;;;23.93;11.20;;;;;;;;;;5018212;28;20133;-79
2023/11/26 05:51:10;;;;;;;24.83;11.47;;;;;;;;;;5013890;28;20116;-79
2023/11/26 05:53:36;;;;;;;22.53;10.17;;;;;;;;;;5006929;28;20656;-79
2023/11/26 05:56:02;;;;;;;27.53;14.03;;;;;;;;;;5037564;28;20041;-80
2023/11/26 05:58:28;;;;;;;40.47;16.23;;;;;;;;;;5013222;28;20149;-81
2023/11/26 06:00:54;;;;;;;32.83;15.57;;;;;;;;;;5035433;28;20022;-79
2023/11/26 06:03:23;;;;;;;33.13;15.93;;;;;;;;;;5017209;28;20041;-80
2023/11/26 06:05:49;;;;;;;35.00;14.87;;;;;;;;;;5013279;28;20447;-79
2023/11/26 06:08:15;;;;;;;26.90;12.87;;;;;;;;;;5007160;28;20081;-80
2023/11/26 06:10:41;;;;;;;22.87;13.17;;;;;;;;;;5020150;28;20083;-80
2023/11/26 06:13:07;;;;;;;30.03;14.77;;;;;;;;;;5017579;28;20040;-80
2023/11/26 06:15:33;;;;;;;33.17;14.83;;;;;;;;;;5019586;28;20025;-79
2023/11/26 06:17:59;;;;;;;26.00;12.50;;;;;;;;;;5019491;28;20029;-79
2023/11/26 06:20:25;;;;;;;20.90;12.57;;;;;;;;;;5035067;28;20052;-79
2023/11/26 06:22:51;;;;;;;24.33;11.73;;;;;;;;;;5016704;28;20112;-78
2023/11/26 06:25:17;;;;;;;29.33;13.10;;;;;;;;;;5016767;28;20047;-79
2023/11/26 06:27:43;;;;;;;34.77;15.27;;;;;;;;;;5029232;28;20025;-79
2023/11/26 06:30:10;;;;;;;36.73;15.43;;;;;;;;;;5031256;28;20031;-79
2023/11/26 06:32:36;;;;;;;44.50;18.70;;;;;;;;;;5027734;28;20036;-79
2023/11/26 06:35:02;;;;;;;40.50;17.87;;;;;;;;;;5014734;28;20389;-79
2023/11/26 06:37:28;;;;;;;53.70;20.30;;;;;;;;;;5034697;28;20033;-79
2023/11/26 06:39:54;;;;;;;40.07;18.97;;;;;;;;;;5031291;28;20029;-79
2023/11/26 06:42:20;;;;;;;47.90;21.37;;;;;;;;;;5016372;28;20033;-79
2023/11/26 06:44:50;;;;;;;48.33;19.73;;;;;;;;;;5016568;28;20796;-79
2023/11/26 06:47:16;;;;;;;57.50;20.07;;;;;;;;;;5014893;28;20029;-79
2023/11/26 06:49:42;;;;;;;48.87;21.33;;;;;;;;;;5033101;28;20071;-79
2023/11/26 06:52:08;;;;;;;57.07;21.40;;;;;;;;;;5031402;28;20119;-79
2023/11/26 06:54:34;;;;;;;53.07;20.97;;;;;;;;;;5016405;28;20040;-79
2023/11/26 06:57:00;;;;;;;48.83;21.83;;;;;;;;;;5016095;28;20366;-79
2023/11/26 06:59:28;;;;;;;48.13;21.20;;;;;;;;;;5014925;28;20041;-79
2023/11/26 07:01:54;;;;;;;57.27;22.97;;;;;;;;;;5015081;28;20026;-79
2023/11/26 07:04:22;;;;;;;52.10;21.73;;;;;;;;;;5015661;28;20035;-79
2023/11/26 07:06:48;;;;;;;56.03;22.37;;;;;;;;;;5015799;28;20033;-79
2023/11/26 07:09:15;;;;;;;51.90;22.10;;;;;;;;;;5014714;28;20041;-79
2023/11/26 07:11:41;;;;;;;52.83;22.83;;;;;;;;;;5033266;28;20022;-80
2023/11/26 07:14:08;;;;;;;48.17;23.57;;;;;;;;;;5014931;28;20409;-79
2023/11/26 07:16:35;;;;;;;51.87;22.03;;;;;;;;;;5014390;28;20043;-79
2023/11/26 07:19:03;;;;;;;46.83;22.97;;;;;;;;;;5013903;28;20026;-78
2023/11/26 07:21:29;;;;;;;55.33;22.57;;;;;;;;;;5031905;28;20117;-79
2023/11/26 07:23:57;;;;;;;49.57;22.77;;;;;;;;;;5014924;28;20037;-77
2023/11/26 07:26:25;;;;;;;45.80;21.83;;;;;;;;;;5016689;28;20033;-79
2023/11/26 07:28:51;;;;;;;54.57;22.07;;;;;;;;;;5016258;28;20033;-79
2023/11/26 07:31:22;;;;;;;45.27;22.37;;;;;;;;;;5034774;28;20037;-79
2023/11/26 07:33:48;;;;;;;55.97;22.27;;;;;;;;;;5015555;28;20036;-79
2023/11/26 07:36:22;;;;;;;47.87;22.43;;;;;;;;;;5015113;28;20532;-79
2023/11/26 07:38:48;;;;;;;52.40;22.40;;;;;;;;;;5016821;28;21701;-79
2023/11/26 07:41:15;;;;;;;41.37;21.07;;;;;;;;;;5015076;28;20051;-79
2023/11/26 07:43:41;;;;;;;50.80;23.03;;;;;;;;;;5016214;28;20029;-79
2023/11/26 07:46:08;;;;;;;44.00;21.33;;;;;;;;;;5012283;28;20043;-79
2023/11/26 07:48:36;;;;;;;45.63;21.60;;;;;;;;;;5012611;28;20037;-80
2023/11/26 07:51:03;;;;;;;46.87;21.10;;;;;;;;;;5034480;28;20059;-79
2023/11/26 07:53:30;;;;;;;44.30;21.33;;;;;;;;;;5015381;28;20110;-79
2023/11/26 07:55:56;;;;;;;47.00;20.27;;;;;;;;;;5014589;28;20039;-79
2023/11/26 07:58:25;;;;;;;54.60;21.80;;;;;;;;;;5032527;28;20017;-80
2023/11/26 08:00:52;;;;;;;42.50;20.03;;;;;;;;;;5014968;28;20095;-79
2023/11/26 08:03:21;;;;;;;45.80;21.10;;;;;;;;;;5015017;28;20419;-79
2023/11/26 08:05:47;;;;;;;45.93;21.43;;;;;;;;;;5014044;28;20033;-79
2023/11/26 08:08:15;;;;;;;41.37;21.13;;;;;;;;;;5031185;28;20029;-78
2023/11/26 08:10:44;;;;;;;48.80;21.40;;;;;;;;;;5031538;28;20060;-79
2023/11/26 08:13:11;;;;;;;44.77;20.27;;;;;;;;;;5014574;28;20378;-79
2023/11/26 08:15:39;;;;;;;46.27;20.33;;;;;;;;;;5012252;28;20120;-79
2023/11/26 08:18:06;;;;;;;47.20;21.27;;;;;;;;;;5015101;28;20033;-79
2023/11/26 08:20:32;;;;;;;43.97;18.73;;;;;;;;;;5012698;28;20038;-79
2023/11/26 08:23:02;;;;;;;41.93;18.30;;;;;;;;;;5012732;28;20025;-78
2023/11/26 08:25:33;;;;;;;41.33;19.43;;;;;;;;;;5031138;28;20022;-79
2023/11/26 08:28:00;;;;;;;39.87;19.43;;;;;;;;;;5031621;28;20021;-79
2023/11/26 08:30:38;;;;;;;49.13;20.10;;;;;;;;;;5014606;28;20036;-79
2023/11/26 08:33:05;;;;;;;42.23;19.50;;;;;;;;;;5013584;28;20438;-79
2023/11/26 08:35:32;;;;;;;45.47;19.37;;;;;;;;;;5013375;28;20025;-79
2023/11/26 08:38:00;;;;;;;42.17;19.63;;;;;;;;;;5030183;28;20021;-79
2023/11/26 08:40:26;;;;;;;37.50;19.53;;;;;;;;;;5013378;28;20434;-79
2023/11/26 08:42:54;;;;;;;42.00;20.00;;;;;;;;;;5013242;28;20339;-79
2023/11/26 08:45:23;;;;;;;38.27;19.27;;;;;;;;;;5013514;28;20041;-79
2023/11/26 08:47:51;;;;;;;40.20;18.63;;;;;;;;;;5032028;28;20068;-77
2023/11/26 08:50:20;;;;;;;38.97;17.77;;;;;;;;;;5015715;28;20056;-78
2023/11/26 08:52:46;;;;;;;45.73;18.73;;;;;;;;;;5027498;28;20021;-79
2023/11/26 08:55:12;;;;;;;40.83;18.33;;;;;;;;;;5017502;28;20343;-79
2023/11/26 08:57:41;;;;;;;49.83;20.80;;;;;;;;;;5018309;28;20858;-79
2023/11/26 09:00:11;;;;;;;42.83;19.63;;;;;;;;;;5031190;28;20033;-79
2023/11/26 09:02:40;;;;;;;40.07;18.53;;;;;;;;;;5032297;28;20030;-79
2023/11/26 09:05:10;;;;;;;33.60;18.00;;;;;;;;;;5014776;28;20048;-79
2023/11/26 09:07:36;;;;;;;46.40;18.37;;;;;;;;;;5014905;28;20057;-79
2023/11/26 09:10:03;;;;;;;43.30;18.93;;;;;;;;;;5016095;28;20039;-79
2023/11/26 09:12:29;;;;;;;49.23;19.73;;;;;;;;;;5013710;28;20473;-79
2023/11/26 09:14:59;;;;;;;41.00;18.80;;;;;;;;;;5020615;28;20037;-82
2023/11/26 09:17:25;;;;;;;33.77;18.73;;;;;;;;;;5039666;28;20053;-80
2023/11/26 09:19:51;;;;;;;41.60;18.67;;;;;;;;;;5029200;28;20033;-82
2023/11/26 09:22:20;;;;;;;37.80;17.83;;;;;;;;;;5052184;28;20053;-81
2023/11/26 09:24:46;;;;;;;35.23;17.53;;;;;;;;;;5046994;28;20021;-83
2023/11/26 09:27:12;;;;;;;38.87;19.27;;;;;;;;;;5033462;28;20029;-80
2023/11/26 09:29:38;;;;;;;42.40;17.77;;;;;;;;;;5033211;28;20033;-82
2023/11/26 09:32:07;;;;;;;45.73;18.50;;;;;;;;;;5032293;28;20040;-80
2023/11/26 09:34:35;;;;;;;29.00;16.90;;;;;;;;;;5050488;28;20049;-82
2023/11/26 09:37:04;;;;;;;43.97;18.83;;;;;;;;;;5032552;28;20168;-80
2023/11/26 09:39:33;;;;;;;35.37;17.97;;;;;;;;;;5026790;28;20030;-80
2023/11/26 09:41:59;;;;;;;41.10;17.50;;;;;;;;;;5027574;28;20037;-81
2023/11/26 09:44:26;;;;;;;37.43;15.40;;;;;;;;;;5026307;28;20045;-81
2023/11/26 09:46:52;;;;;;;31.73;16.07;;;;;;;;;;5023267;28;20030;-80
2023/11/26 09:49:18;;;;;;;34.77;18.10;;;;;;;;;;5037565;28;20533;-81
2023/11/26 09:51:44;;;;;;;36.27;18.17;;;;;;;;;;5039691;28;20129;-80
2023/11/26 09:54:10;;;;;;;33.17;16.90;;;;;;;;;;5020478;28;20033;-79
2023/11/26 09:56:38;;;;;;;35.17;17.47;;;;;;;;;;5019630;28;20078;-80
2023/11/26 09:59:08;;;;;;;33.80;17.30;;;;;;;;;;5041197;28;20056;-80
2023/11/26 10:01:34;;;;;;;33.50;16.10;;;;;;;;;;5021854;28;20037;-80
2023/11/26 10:04:01;;;;;;;33.13;16.93;;;;;;;;;;5042357;28;20047;-81
2023/11/26 10:06:27;;;;;;;28.97;16.50;;;;;;;;;;5028508;28;20713;-79
2023/11/26 10:08:54;;;;;;;32.77;16.83;;;;;;;;;;5026610;28;20037;-81
2023/11/26 10:11:24;;;;;;;29.47;15.73;;;;;;;;;;5025467;28;20037;-80
2023/11/26 10:13:50;;;;;;;33.97;15.30;;;;;;;;;;5040292;28;20597;-81
2023/11/26 10:16:36;;;;;;;33.80;15.97;;;;;;;;;;5037422;28;20033;-81
2023/11/26 10:19:02;;;;;;;31.60;15.93;;;;;;;;;;5025715;28;20373;-79
2023/11/26 10:21:29;;;;;;;34.57;15.17;;;;;;;;;;5025748;28;20025;-81
2023/11/26 10:23:55;;;;;;;29.03;15.50;;;;;;;;;;5029894;28;20060;-81
2023/11/26 10:26:22;;;;;;;28.50;14.63;;;;;;;;;;5028476;28;20026;-81
2023/11/26 10:29:20;;;;;;;22.13;12.53;;;;;;;;;;5022708;28;20033;-80
2023/11/26 10:32:01;;;;;;;24.60;14.00;;;;;;;;;;5010075;28;20049;-83
2023/11/26 10:34:30;;;;;;;33.10;15.13;;;;;;;;;;5028329;28;20028;-82
2023/11/26 10:36:59;;;;;;;26.67;13.80;;;;;;;;;;5027288;28;20116;-81
2023/11/26 10:39:25;;;;;;;27.03;14.27;;;;;;;;;;5031122;28;20057;-82
2023/11/26 10:41:51;;;;;;;28.33;14.20;;;;;;;;;;5027328;28;20061;-84
2023/11/26 10:44:20;;;;;;;22.67;12.40;;;;;;;;;;5027654;28;20038;-83
2023/11/26 10:46:48;;;;;;;28.17;12.90;;;;;;;;;;5020822;28;20028;-83
2023/11/26 10:49:27;;;;;;;;;;;;;;;;;;;;;
2023/11/26 10:52:12;;;;;;;19.47;10.77;;;;;;;;;;5049981;28;20057;-82
2023/11/26 10:54:48;;;;;;;26.90;13.07;;;;;;;;;;5047957;28;20033;-82
2023/11/26 10:57:20;;;;;;;21.77;10.60;;;;;;;;;;5032126;28;20045;-82
2023/11/26 10:59:48;;;;;;;19.27;11.05;;;;;;;;;;5031032;28;20159;-83
2023/11/26 11:02:14;;;;;;;22.77;10.40;;;;;;;;;;5021696;28;20025;-81
2023/11/26 11:04:43;;;;;;;22.20;10.93;;;;;;;;;;5024957;28;20033;-80
2023/11/26 11:07:09;;;;;;;25.83;10.87;;;;;;;;;;5022475;28;20041;-81
2023/11/26 11:09:44;;;;;;;26.87;10.67;;;;;;;;;;5021685;28;20041;-81
2023/11/26 11:12:13;;;;;;;20.03;10.87;;;;;;;;;;5017094;28;20037;-82
2023/11/26 11:14:39;;;;;;;24.07;10.23;;;;;;;;;;5040088;28;20026;-82
2023/11/26 11:17:05;;;;;;;22.17;10.47;;;;;;;;;;5024448;28;20030;-81
2023/11/26 11:19:47;;;;;;;21.40;10.13;;;;;;;;;;5037692;28;20025;-81
2023/11/26 11:22:13;;;;;;;22.92;11.20;;;;;;;;;;5022962;28;20033;-82
2023/11/26 11:24:42;;;;;;;20.20;10.50;;;;;;;;;;5043369;28;20033;-82
2023/11/26 11:27:10;;;;;;;25.47;12.20;;;;;;;;;;5046155;28;20048;-82
2023/11/26 11:29:36;;;;;;;23.70;12.00;;;;;;;;;;5019868;28;20337;-82
2023/11/26 11:32:05;;;;;;;26.77;13.27;;;;;;;;;;5024170;28;20030;-81
2023/11/26 11:34:31;;;;;;;19.60;11.83;;;;;;;;;;5031201;28;20064;-80
2023/11/26 11:37:02;;;;;;;30.40;11.93;;;;;;;;;;5010727;28;20040;-81
2023/11/26 11:39:46;;;;;;;29.90;13.03;;;;;;;;;;5015073;28;20104;-81
2023/11/26 11:42:13;;;;;;;21.40;12.57;;;;;;;;;;5026068;28;20434;-80
2023/11/26 11:44:41;;;;;;;23.83;11.73;;;;;;;;;;5017822;28;20041;-82
2023/11/26 11:47:08;;;;;;;28.40;12.90;;;;;;;;;;5018811;28;20052;-81
2023/11/26 11:49:51;;;;;;;21.07;13.30;;;;;;;;;;5022920;28;20025;-81
2023/11/26 11:52:17;;;;;;;21.08;12.63;;;;;;;;;;5024365;28;20036;-81
2023/11/26 11:55:01;;;;;;;22.57;13.80;;;;;;;;;;5022115;28;20040;-81
2023/11/26 11:57:28;;;;;;;24.77;13.70;;;;;;;;;;5016884;28;20101;-82
2023/11/26 11:59:55;;;;;;;24.00;14.23;;;;;;;;;;5021374;28;20089;-83
2023/11/26 12:02:25;;;;;;;23.73;13.17;;;;;;;;;;5025744;28;20030;-81
2023/11/26 12:04:51;;;;;;;24.67;13.43;;;;;;;;;;5021850;28;20041;-81
2023/11/26 12:07:18;;;;;;;32.60;15.53;;;;;;;;;;5017125;28;20030;-81
2023/11/26 12:09:44;;;;;;;23.57;13.23;;;;;;;;;;5024749;28;20097;-81
2023/11/26 12:12:11;;;;;;;26.00;13.60;;;;;;;;;;5048478;28;20033;-81
2023/11/26 12:14:42;;;;;;;21.30;12.43;;;;;;;;;;5024043;28;20040;-82
2023/11/26 12:17:15;;;;;;;27.50;12.37;;;;;;;;;;5026639;28;20084;-82
2023/11/26 12:19:42;;;;;;;18.27;12.35;;;;;;;;;;5035663;28;20045;-80
2023/11/26 12:22:14;;;;;;;25.70;11.77;;;;;;;;;;5050293;28;20038;-79
2023/11/26 12:24:40;;;;;;;23.30;12.05;;;;;;;;;;5030377;28;20029;-80
2023/11/26 12:27:08;;;;;;;26.33;10.90;;;;;;;;;;5030289;28;20064;-80
2023/11/26 12:29:37;;;;;;;23.30;11.17;;;;;;;;;;5013904;28;20068;-81
2023/11/26 12:32:06;;;;;;;21.60;10.40;;;;;;;;;;5017117;28;20025;-80
2023/11/26 12:34:37;;;;;;;20.87;10.60;;;;;;;;;;5034099;28;20060;-79
2023/11/26 12:37:03;;;;;;;20.33;11.10;;;;;;;;;;5013241;28;20025;-79
2023/11/26 12:39:29;;;;;;;21.43;9.50;;;;;;;;;;5015213;28;20557;-79
2023/11/26 12:41:58;;;;;;;23.60;11.60;;;;;;;;;;5014589;28;21385;-79
2023/11/26 12:44:24;;;;;;;23.67;10.60;;;;;;;;;;5014241;28;20048;-79
2023/11/26 12:46:50;;;;;;;18.37;8.73;;;;;;;;;;5015342;28;20025;-80
2023/11/26 12:49:23;;;;;;;22.53;9.90;;;;;;;;;;5032403;28;20479;-79
2023/11/26 12:51:53;;;;;;;15.03;9.27;;;;;;;;;;5014967;28;20037;-79
2023/11/26 12:54:19;;;;;;;21.53;8.90;;;;;;;;;;5015470;28;20056;-79
2023/11/26 12:56:45;;;;;;;19.40;9.90;;;;;;;;;;5015961;28;20037;-79
2023/11/26 12:59:11;;;;;;;17.77;9.77;;;;;;;;;;5015667;28;20029;-79
2023/11/26 13:01:37;;;;;;;15.93;9.37;;;;;;;;;;5013917;28;20075;-79
2023/11/26 13:04:04;;;;;;;25.17;10.43;;;;;;;;;;5015611;28;20044;-79
2023/11/26 13:06:32;;;;;;;17.60;10.03;;;;;;;;;;5014797;28;20446;-78
2023/11/26 13:09:07;;;;;;;19.10;10.47;;;;;;;;;;5015637;28;20100;-79
2023/11/26 13:11:38;;;;;;;20.90;10.00;;;;;;;;;;5016403;28;20026;-79
2023/11/26 13:14:08;;;;;;;23.03;9.33;;;;;;;;;;5017440;28;20052;-80
2023/11/26 13:16:35;;;;;;;17.23;9.93;;;;;;;;;;5015389;28;20025;-80
2023/11/26 13:19:04;;;;;;;18.57;10.10;;;;;;;;;;5014541;28;20159;-78
2023/11/26 13:21:34;;;;;;;20.53;10.00;;;;;;;;;;5015278;28;20053;-79
2023/11/26 13:24:00;;;;;;;20.10;10.50;;;;;;;;;;5014861;28;20571;-79
2023/11/26 13:26:26;;;;;;;20.17;9.67;;;;;;;;;;5014885;28;20033;-80
2023/11/26 13:28:52;;;;;;;15.10;9.37;;;;;;;;;;5014097;28;20033;-79
2023/11/26 13:31:18;;;;;;;14.30;8.90;;;;;;;;;;5014575;28;20120;-79
2023/11/26 13:33:48;;;;;;;17.87;8.97;;;;;;;;;;5015322;28;20033;-79
2023/11/26 13:36:14;;;;;;;20.20;8.67;;;;;;;;;;5013684;28;20068;-79
2023/11/26 13:38:40;;;;;;;14.20;8.80;;;;;;;;;;5014815;28;20045;-79
2023/11/26 13:41:06;;;;;;;15.53;8.13;;;;;;;;;;5012815;28;20113;-79
2023/11/26 13:43:35;;;;;;;18.87;9.20;;;;;;;;;;5015335;28;20025;-78
2023/11/26 13:46:03;;;;;;;15.77;7.90;;;;;;;;;;5014350;28;20517;-79
2023/11/26 13:48:29;;;;;;;17.90;8.10;;;;;;;;;;5030922;28;20112;-78
2023/11/26 13:50:55;;;;;;;15.37;7.87;;;;;;;;;;5010267;28;20076;-77
2023/11/26 13:53:23;;;;;;;16.07;7.13;;;;;;;;;;5013254;28;20707;-77
2023/11/26 13:55:54;;;;;;;11.70;6.87;;;;;;;;;;5012685;28;20041;-78
2023/11/26 13:58:20;;;;;;;16.90;7.90;;;;;;;;;;5012330;28;20037;-78
2023/11/26 14:00:49;;;;;;;19.97;9.47;;;;;;;;;;5013957;28;20031;-78
2023/11/26 14:03:15;;;;;;;12.73;7.70;;;;;;;;;;5015848;28;20033;-78
2023/11/26 14:05:41;;;;;;;12.63;7.47;;;;;;;;;;5016933;28;20036;-77
2023/11/26 14:08:07;;;;;;;13.87;8.07;;;;;;;;;;5031387;28;20453;-78
2023/11/26 14:10:33;;;;;;;16.67;8.53;;;;;;;;;;5015497;28;20040;-77
2023/11/26 14:13:01;;;;;;;16.67;8.43;;;;;;;;;;5014317;28;20365;-77
2023/11/26 14:15:29;;;;;;;12.90;7.83;;;;;;;;;;5014304;28;20045;-77
2023/11/26 14:17:58;;;;;;;18.70;9.37;;;;;;;;;;5011938;28;20029;-78
2023/11/26 14:20:24;;;;;;;17.93;9.37;;;;;;;;;;5013322;28;20021;-77
2023/11/26 14:22:53;;;;;;;16.23;9.67;;;;;;;;;;5014567;28;20472;-78
2023/11/26 14:25:19;;;;;;;20.83;10.37;;;;;;;;;;5016042;28;20582;-80
2023/11/26 14:27:49;;;;;;;23.70;11.37;;;;;;;;;;5016173;28;20029;-76
2023/11/26 14:30:16;;;;;;;22.20;11.10;;;;;;;;;;5013183;28;20026;-78